Time;durP1;ratioP1;P1;durP2;ratioP2;P2;SDS_P1;SDS_P2;PMS_P1;PMS_P2;Temp;Humidity;BMP_temperature;BMP_pressure;BME280_temperature;BME280_humidity;BME280_pressure;Samples;Min_cycle;Max_cycle;Signal;HPM_P1;HPM_P2
2024/04/04 00:12:17;;;;;;;;;;;;;;;;;;;;;
2024/04/04 00:29:18;;;;;;;0.93;0.80;;;;;;;12.11;72.82;95116.47;6004097;23;20259;-90
2024/04/04 00:52:01;;;;;;;1.13;0.70;;;;;;;12.15;71.83;95093.63;6006127;23;20183;-88
2024/04/04 00:55:15;;;;;;;0.50;0.50;;;;;;;12.20;71.59;95070.59;6210849;23;20185;-88
2024/04/04 00:58:30;;;;;;;0.67;0.57;;;;;;;12.25;71.47;95076.78;6193332;23;20220;-87
2024/04/04 01:02:01;;;;;;;;;;;;;;;;;;;;;
2024/04/04 01:18:44;;;;;;;;;;;;;;;;;;;;;
2024/04/04 01:22:37;;;;;;;;;;;;;;;;;;;;;
2024/04/04 01:25:31;;;;;;;0.77;0.60;;;;;;;12.27;70.61;95076.56;6037531;23;20243;-88
2024/04/04 01:35:16;;;;;;;;;;;;;;;;;;;;;
2024/04/04 01:54:16;;;;;;;;;;;;;;;;;;;;;
2024/04/04 02:41:32;;;;;;;;;;;;;;;;;;;;;
2024/04/04 02:45:02;;;;;;;1.83;0.67;;;;;;;12.49;71.10;95134.75;6035718;23;20174;-88
2024/04/04 03:14:20;;;;;;;1.93;0.60;;;;;;;12.61;71.61;95174.47;5812970;24;20187;-88
2024/04/04 03:17:50;;;;;;;1.83;0.80;;;;;;;12.63;71.72;95169.13;5791386;24;20239;-87
2024/04/04 03:45:24;;;;;;;1.63;0.70;;;;;;;12.75;71.00;95167.50;6047835;23;20258;-88
2024/04/04 03:55:49;;;;;;;2.10;0.77;;;;;;;12.63;71.12;95177.66;6082391;23;20661;-89
2024/04/04 03:59:12;;;;;;;0.90;0.70;;;;;;;12.64;71.10;95173.28;6186332;23;20193;-88
2024/04/04 04:04:29;;;;;;;1.40;0.87;;;;;;;12.55;71.79;95190.75;6181202;23;20350;-89
2024/04/04 04:07:21;;;;;;;0.70;0.53;;;;;;;12.56;71.93;95205.25;6184540;23;20190;-89
2024/04/04 04:10:03;;;;;;;0.40;0.40;;;;;;;12.52;71.86;95201.47;6202482;23;20264;-89
2024/04/04 04:13:16;;;;;;;1.30;0.80;;;;;;;12.59;71.97;95199.69;6213864;23;20245;-89
2024/04/04 04:16:13;;;;;;;;;;;;;;;;;;;;;
2024/04/04 04:18:56;;;;;;;1.27;0.60;;;;;;;12.50;72.02;95223.34;6195921;23;20230;-89
2024/04/04 04:21:35;;;;;;;1.47;0.67;;;;;;;12.49;72.24;95217.38;6211834;23;20173;-89
2024/04/04 04:31:58;;;;;;;;;;;;;;;;;;;;;
2024/04/04 04:35:09;;;;;;;0.83;0.50;;;;;;;12.58;72.30;95213.59;5921283;24;20180;-88
2024/04/04 04:55:00;;;;;;;0.60;0.60;;;;;;;12.42;72.87;95232.06;5898237;24;20184;-88
2024/04/04 06:28:23;;;;;;;4.97;0.90;;;;;;;13.66;70.94;95189.00;6178464;23;20213;-88
2024/04/04 06:30:49;;;;;;;1.90;0.65;;;;;;;13.94;68.84;95105.06;6185853;23;20510;-87
2024/04/04 06:37:16;;;;;;;1.45;0.55;;;;;;;13.94;66.13;94970.50;5970249;23;20201;-88
2024/04/04 06:40:31;;;;;;;;;;;;;;;;;;;;;
2024/04/04 06:42:59;;;;;;;0.30;0.30;;;;;;;13.88;65.61;94966.16;6167372;23;20189;-88
2024/04/04 06:46:04;;;;;;;1.38;0.50;;;;;;;14.02;65.74;94978.81;6183479;23;20542;-89
2024/04/04 06:48:43;;;;;;;;;;;;;;;;;;;;;
2024/04/04 06:51:25;;;;;;;2.70;0.70;;;;;;;14.09;64.89;94937.31;6182666;23;20192;-88
2024/04/04 06:54:03;;;;;;;0.52;0.40;;;;;;;14.12;64.92;94937.69;6181863;23;20166;-89
2024/04/04 06:56:44;;;;;;;0.60;0.45;;;;;;;14.26;64.23;94909.06;6183791;23;20194;-87
2024/04/04 07:02:40;;;;;;;0.60;0.57;;;;;;;14.54;63.35;94865.34;6057312;23;20217;-87
2024/04/04 07:02:55;;;;;;;1.50;0.55;;;;;;;14.41;63.81;94896.59;6183472;23;20489;-89
2024/04/04 07:05:31;;;;;;;0.70;0.60;;;;;;;14.56;62.93;94844.41;6170500;23;20201;-89
2024/04/04 07:08:09;;;;;;;0.57;0.50;;;;;;;14.43;62.80;94830.59;6180215;23;20210;-87
2024/04/04 07:10:46;;;;;;;1.00;0.45;;;;;;;14.23;62.38;94813.72;6183467;23;20162;-88
2024/04/04 07:13:33;;;;;;;3.70;0.50;;;;;;;14.18;62.86;94832.47;6182941;23;20559;-88
2024/04/04 07:17:10;;;;;;;0.55;0.55;;;;;;;14.03;62.79;94822.50;6183393;23;20154;-88
2024/04/04 07:19:28;;;;;;;0.43;0.43;;;;;;;14.03;62.88;94850.19;6101395;23;20198;-87
2024/04/04 07:21:54;;;;;;;2.97;0.80;;;;;;;13.91;63.39;94862.22;6151713;23;20229;-88
2024/04/04 07:24:23;;;;;;;0.63;0.50;;;;;;;13.85;63.39;94857.94;6151745;23;20457;-89
2024/04/04 07:26:54;;;;;;;0.60;0.60;;;;;;;13.79;63.62;94883.66;6153273;23;20665;-87
2024/04/04 07:29:21;;;;;;;0.63;0.50;;;;;;;13.95;63.23;94871.94;6152050;23;20194;-89
2024/04/04 07:31:46;;;;;;;4.03;0.52;;;;;;;14.31;62.02;94824.53;6152511;23;20250;-88
2024/04/04 07:34:25;;;;;;;2.70;0.60;;;;;;;14.77;60.74;94763.59;6151918;23;20748;-88
2024/04/04 07:37:22;;;;;;;;;;;;;;;;;;;;;
2024/04/04 07:49:13;;;;;;;0.50;0.50;;;;;;;16.17;56.34;94519.41;6088644;23;20180;-90
2024/04/04 07:58:03;;;;;;;1.65;0.60;;;;;;;16.76;54.58;94426.94;5934371;23;20734;-90
2024/04/04 08:00:36;;;;;;;0.50;0.50;;;;;;;16.72;53.41;94336.72;6088437;23;20187;-87
2024/04/04 08:06:18;;;;;;;1.40;0.52;;;;;;;16.67;53.19;94316.66;6119799;23;20166;-87
2024/04/04 08:09:06;;;;;;;0.60;0.60;;;;;;;16.70;52.87;94303.19;6151172;23;20179;-87
2024/04/04 08:15:17;;;;;;;0.82;0.60;;;;;;;17.15;51.59;94219.53;6112576;23;20171;-90
2024/04/04 08:17:43;;;;;;;1.08;0.70;;;;;;;17.47;51.09;94209.09;6150696;23;20571;-87
2024/04/04 08:21:07;;;;;;;0.70;0.60;;;;;;;17.85;50.82;94204.59;6152422;23;20183;-88
2024/04/04 08:24:54;;;;;;;1.77;0.60;;;;;;;17.98;49.44;94135.63;6154197;23;20202;-89
2024/04/04 08:32:32;;;;;;;1.67;0.60;;;;;;;18.91;48.22;94110.09;6174632;23;20202;-91
2024/04/04 08:35:06;;;;;;;1.60;0.60;;;;;;;19.12;47.91;94084.75;6182729;23;20154;-87
2024/04/04 08:37:34;;;;;;;1.73;0.77;;;;;;;18.86;47.44;94173.47;6181156;23;20193;-87
2024/04/04 08:40:33;;;;;;;;;;;;;;;;;;;;;
2024/04/04 08:43:28;;;;;;;0.75;0.60;;;;;;;18.79;47.17;94166.97;6175149;23;20716;-89
2024/04/04 08:49:59;;;;;;;0.80;0.60;;;;;;;19.26;46.02;94127.47;6060456;23;20180;-90
2024/04/04 09:06:08;;;;;;;3.03;1.10;;;;;;;18.88;44.49;94063.69;6078682;23;20184;-87
2024/04/04 09:09:24;;;;;;;1.25;0.52;;;;;;;18.83;45.15;94108.03;6100430;23;20175;-89
2024/04/04 09:32:35;;;;;;;1.17;0.82;;;;;;;18.17;44.79;94066.34;6056165;23;20244;-90
2024/04/04 09:42:46;;;;;;;1.05;0.70;;;;;;;17.89;45.33;94071.03;5928342;24;20190;-90
2024/04/04 09:45:58;;;;;;;2.00;0.68;;;;;;;17.53;45.93;94083.13;5890123;24;20356;-90
2024/04/04 09:49:03;;;;;;;;;;;;;;;;;;;;;
2024/04/04 09:51:39;;;;;;;1.17;0.82;;;;;;;17.67;46.25;94124.34;6152760;23;20721;-88
2024/04/04 10:01:01;;;;;;;;;;;;;;;;;;;;;
2024/04/04 10:13:48;;;;;;;;;;;;;;;;;;;;;
2024/04/04 10:16:53;;;;;;;;;;;;;;;;;;;;;
2024/04/04 10:19:36;;;;;;;5.15;0.93;;;;;;;19.36;42.73;93955.22;5977254;23;20183;-90
2024/04/04 10:22:02;;;;;;;2.40;0.93;;;;;;;19.57;44.76;94055.88;5983316;23;20270;-86
2024/04/04 10:24:30;;;;;;;5.00;1.33;;;;;;;19.62;44.40;94063.69;6149146;23;20320;-87
2024/04/04 10:26:57;;;;;;;2.03;1.00;;;;;;;19.26;43.79;94025.72;6151984;23;20195;-85
2024/04/04 10:29:26;;;;;;;1.23;0.93;;;;;;;19.18;44.63;94073.25;6152489;23;20209;-86
2024/04/04 10:32:03;;;;;;;1.08;0.85;;;;;;;19.16;43.03;93971.75;6152834;23;20182;-88
2024/04/04 10:35:24;;;;;;;1.05;0.77;;;;;;;19.01;42.89;93961.41;6152097;23;20163;-89
2024/04/04 10:38:01;;;;;;;1.55;0.75;;;;;;;18.98;43.68;93983.59;6152297;23;20269;-86
2024/04/04 10:40:31;;;;;;;1.23;0.73;;;;;;;18.84;43.52;93998.25;6152216;23;20165;-87
2024/04/04 10:43:00;;;;;;;0.70;0.60;;;;;;;18.56;42.63;93921.41;6152630;23;20167;-89
2024/04/04 10:45:40;;;;;;;1.77;0.75;;;;;;;18.58;42.44;93908.88;6152806;23;20650;-89
2024/04/04 10:48:36;;;;;;;1.05;0.65;;;;;;;18.42;42.49;93910.00;6151613;23;20195;-88
2024/04/04 10:51:13;;;;;;;1.35;0.70;;;;;;;18.25;42.87;93923.34;6141899;23;20229;-87
2024/04/04 10:53:51;;;;;;;1.70;0.60;;;;;;;18.12;43.22;93959.53;6152411;23;20175;-87
2024/04/04 10:56:28;;;;;;;;;;;;;;;;;;;;;
2024/04/04 10:58:59;;;;;;;1.52;0.68;;;;;;;18.11;44.07;94028.31;6153378;23;20175;-89
2024/04/04 11:01:40;;;;;;;2.00;0.70;;;;;;;17.98;44.01;94013.22;6153285;23;20156;-90
2024/04/04 11:04:45;;;;;;;1.42;0.93;;;;;;;17.87;44.01;94020.25;6153212;23;20268;-89
2024/04/04 11:07:38;;;;;;;0.73;0.70;;;;;;;17.87;44.18;94031.44;6070360;23;20204;-90
2024/04/04 11:10:08;;;;;;;1.42;0.73;;;;;;;17.97;44.54;94053.31;6153725;23;20638;-91
2024/04/04 11:13:05;;;;;;;1.95;0.80;;;;;;;17.92;44.57;94057.47;6153414;23;20560;-90
2024/04/04 11:15:34;;;;;;;1.42;1.00;;;;;;;17.91;44.63;94061.13;6152669;23;20202;-91
2024/04/04 11:20:55;;;;;;;2.20;0.70;;;;;;;17.93;44.65;94066.84;6148607;23;20884;-90
2024/04/04 11:23:46;;;;;;;1.77;0.80;;;;;;;17.97;44.68;94071.53;6143648;23;20274;-90
2024/04/04 11:26:30;;;;;;;1.88;0.70;;;;;;;17.86;44.38;94049.94;6087269;23;20171;-90
2024/04/04 11:29:20;;;;;;;1.77;0.60;;;;;;;17.90;44.94;94083.00;6152977;23;20175;-90
2024/04/04 11:31:55;;;;;;;0.95;0.70;;;;;;;17.89;45.28;94088.47;6153946;23;20159;-91
2024/04/04 11:34:46;;;;;;;2.20;0.80;;;;;;;17.97;44.46;94067.13;6152250;23;20178;-90
2024/04/04 11:37:28;;;;;;;1.23;0.63;;;;;;;17.87;44.12;94054.88;6043045;23;20240;-91
2024/04/04 11:40:17;;;;;;;0.75;0.70;;;;;;;17.71;44.46;94050.69;6152387;23;20182;-90
2024/04/04 11:42:49;;;;;;;2.25;0.93;;;;;;;17.69;44.56;94065.00;6151772;23;20159;-90
2024/04/04 11:45:29;;;;;;;1.00;0.90;;;;;;;17.68;44.77;94072.03;6153214;23;20211;-90
2024/04/04 11:48:07;;;;;;;1.88;1.67;;;;;;;17.62;45.21;94083.44;6150821;23;20253;-90
2024/04/04 11:50:35;;;;;;;2.78;0.70;;;;;;;17.55;44.72;94064.66;6152546;23;20242;-90
2024/04/04 11:56:16;;;;;;;2.38;0.98;;;;;;;17.53;44.84;94077.94;6158700;23;20226;-89
2024/04/04 11:58:42;;;;;;;1.63;0.80;;;;;;;17.59;45.11;94091.75;6155604;23;20176;-90
2024/04/04 12:01:27;;;;;;;1.02;0.68;;;;;;;17.63;45.33;94099.84;6151900;23;20209;-90
2024/04/04 12:07:17;;;;;;;2.88;1.08;;;;;;;17.71;45.49;94109.75;6112728;23;20587;-90
2024/04/04 12:09:43;;;;;;;1.52;0.90;;;;;;;17.69;45.64;94120.47;6153321;23;20183;-90
2024/04/04 12:12:15;;;;;;;1.92;1.17;;;;;;;17.68;45.57;94125.91;6153445;23;20171;-90
2024/04/04 12:15:07;;;;;;;1.45;0.80;;;;;;;17.76;45.47;94115.00;6153527;23;20155;-91
2024/04/04 12:20:33;;;;;;;1.42;0.90;;;;;;;17.91;45.64;94133.25;6181792;23;20240;-89
2024/04/04 12:23:19;;;;;;;1.23;0.90;;;;;;;17.85;45.09;94109.03;6182656;23;20510;-89
2024/04/04 12:34:41;;;;;;;1.58;0.80;;;;;;;17.71;45.68;94130.59;6178813;23;20253;-90
2024/04/04 12:40:32;;;;;;;1.58;0.80;;;;;;;17.69;45.95;94145.69;6180786;23;20185;-90
2024/04/04 12:43:54;;;;;;;0.77;0.70;;;;;;;17.72;46.17;94164.19;6184447;23;20176;-90
2024/04/04 12:49:31;;;;;;;1.73;0.80;;;;;;;17.69;46.14;94167.31;6004671;23;20178;-90
2024/04/04 12:52:28;;;;;;;;;;;;;;;;;;;;;
2024/04/04 12:55:09;;;;;;;2.17;0.90;;;;;;;17.69;46.47;94171.72;6059694;23;20221;-89
2024/04/04 13:00:21;;;;;;;0.50;0.50;;;;;;;17.53;46.16;94150.81;6081623;23;20242;-89
2024/04/04 13:03:35;;;;;;;1.05;0.70;;;;;;;17.51;46.53;94165.88;6154567;23;20284;-91
2024/04/04 13:09:07;;;;;;;1.95;0.70;;;;;;;17.41;46.54;94173.66;6181748;22;20209;-90
2024/04/04 13:11:46;;;;;;;1.67;0.82;;;;;;;17.41;46.99;94201.50;6181013;23;20240;-90
2024/04/04 13:20:34;;;;;;;2.15;0.90;;;;;;;17.43;47.23;94228.06;6179548;23;20177;-90
2024/04/04 13:24:01;;;;;;;1.60;0.82;;;;;;;17.40;47.26;94228.53;6074913;23;20232;-91
2024/04/04 13:54:24;;;;;;;2.45;1.00;;;;;;;17.36;47.98;94272.50;6169436;23;20170;-87
2024/04/04 13:56:49;;;;;;;3.92;1.10;;;;;;;17.49;49.53;94363.16;6182916;23;20198;-86
2024/04/04 13:59:15;;;;;;;1.30;0.80;;;;;;;17.53;48.96;94348.59;6183350;23;20231;-87
2024/04/04 14:01:45;;;;;;;1.00;0.82;;;;;;;17.61;47.77;94269.25;6181903;23;20499;-88
2024/04/04 14:04:54;;;;;;;1.95;0.85;;;;;;;17.59;47.83;94266.13;6183559;23;20162;-90
2024/04/04 14:08:17;;;;;;;;;;;;;;;;;;;;;
2024/04/04 14:11:04;;;;;;;0.63;0.63;;;;;;;17.56;47.65;94243.19;6122241;23;20174;-88
2024/04/04 14:13:41;;;;;;;2.00;0.95;;;;;;;17.60;48.33;94260.69;6181409;23;20178;-88
2024/04/04 14:16:34;;;;;;;1.83;1.20;;;;;;;17.66;47.85;94251.09;6181328;23;20173;-90
2024/04/04 14:22:47;;;;;;;1.27;0.70;;;;;;;17.73;47.63;94224.84;6178575;23;20179;-87
2024/04/04 14:25:36;;;;;;;1.95;0.80;;;;;;;17.67;47.43;94198.03;6184731;23;20217;-87
2024/04/04 14:28:08;;;;;;;0.95;0.80;;;;;;;17.55;46.68;94153.16;6185112;23;20205;-87
2024/04/04 14:30:46;;;;;;;1.67;0.77;;;;;;;17.52;46.61;94138.03;6185797;23;20205;-87
2024/04/04 14:33:25;;;;;;;2.40;0.80;;;;;;;17.55;46.77;94143.53;6184775;23;20194;-88
2024/04/04 14:36:04;;;;;;;2.75;0.80;;;;;;;17.51;45.63;94094.88;6186256;23;20166;-88
2024/04/04 14:38:36;;;;;;;0.90;0.68;;;;;;;17.51;45.44;94068.84;6185146;23;20193;-87
2024/04/04 14:41:23;;;;;;;3.75;0.98;;;;;;;17.54;45.22;94073.50;6185095;23;20234;-89
2024/04/04 14:43:51;;;;;;;1.95;0.80;;;;;;;17.51;45.48;94080.00;6184996;23;20250;-89
2024/04/04 14:46:49;;;;;;;5.00;3.13;;;;;;;17.48;45.44;94090.16;6200051;23;20218;-88
2024/04/04 14:49:43;;;;;;;1.85;1.00;;;;;;;17.48;45.55;94114.38;6185089;23;20249;-89
2024/04/04 14:52:17;;;;;;;1.23;1.05;;;;;;;17.41;45.39;94094.81;6187134;23;20177;-87
2024/04/04 14:57:36;;;;;;;1.65;0.70;;;;;;;17.45;44.83;94047.22;6182139;23;20194;-88
2024/04/04 15:00:28;;;;;;;1.63;0.70;;;;;;;17.41;44.21;94006.34;6187437;23;20225;-90
2024/04/04 15:03:20;;;;;;;0.90;0.75;;;;;;;17.39;43.98;93985.00;6187488;23;20235;-88
2024/04/04 15:05:59;;;;;;;3.22;0.70;;;;;;;17.49;44.30;94008.47;6187326;23;20201;-89
2024/04/04 15:08:33;;;;;;;0.50;0.50;;;;;;;17.44;44.51;94032.66;6187553;23;20197;-88
2024/04/04 15:11:36;;;;;;;4.80;2.90;;;;;;;17.38;44.34;94014.66;6186588;23;20173;-87
2024/04/04 15:14:23;;;;;;;1.60;0.80;;;;;;;17.37;44.31;94045.09;6109143;23;20179;-89
2024/04/04 15:30:33;;;;;;;1.38;0.70;;;;;;;17.18;44.97;94116.81;6033096;23;20189;-87
2024/04/04 15:34:10;;;;;;;1.50;0.63;;;;;;;17.13;45.80;94155.81;5920325;24;20677;-88
2024/04/04 15:49:43;;;;;;;2.83;0.70;;;;;;;16.42;51.86;94568.34;5897928;24;20187;-89
2024/04/04 15:52:43;;;;;;;3.97;1.17;;;;;;;16.36;52.31;94595.28;6069504;23;20253;-88
2024/04/04 15:55:26;;;;;;;2.53;0.80;;;;;;;16.30;52.38;94606.63;5921404;24;20176;-90
2024/04/04 15:58:21;;;;;;;1.27;0.82;;;;;;;16.29;53.14;94650.00;5971342;23;20585;-88
2024/04/04 16:01:10;;;;;;;2.25;1.00;;;;;;;16.25;54.16;94703.44;5893245;24;20717;-88
2024/04/04 16:03:54;;;;;;;2.03;1.77;;;;;;;16.21;54.67;94734.28;5892534;24;20185;-89
2024/04/04 16:25:08;;;;;;;1.42;0.93;;;;;;;15.94;57.45;94833.72;6181509;23;20225;-89
2024/04/04 16:29:00;;;;;;;1.77;1.10;;;;;;;15.90;57.69;94833.38;6182559;23;20938;-90
2024/04/04 16:48:50;;;;;;;;;;;;;;;;;;;;;
2024/04/04 16:51:56;;;;;;;1.70;1.00;;;;;;;15.54;56.64;94754.72;6178522;23;20254;-89
2024/04/04 16:54:44;;;;;;;1.90;1.10;;;;;;;15.60;57.04;94765.22;6182587;23;20265;-89
2024/04/04 17:11:47;;;;;;;1.52;0.90;;;;;;;15.76;54.25;94621.81;5979670;23;20180;-89
2024/04/04 17:15:37;;;;;;;2.03;1.02;;;;;;;15.83;54.05;94602.47;6090342;23;20203;-88
2024/04/04 17:17:57;;;;;;;2.08;0.90;;;;;;;15.84;53.80;94598.84;6033854;23;20323;-89
2024/04/04 17:21:09;;;;;;;1.70;0.93;;;;;;;15.88;53.73;94604.38;6044790;23;20181;-87
2024/04/04 17:27:06;;;;;;;2.05;1.00;;;;;;;15.89;54.07;94626.72;6118901;23;20217;-88
2024/04/04 17:32:14;;;;;;;1.70;0.80;;;;;;;15.93;54.18;94637.41;6182145;23;20155;-87
2024/04/04 17:36:38;;;;;;;1.60;0.90;;;;;;;15.86;54.25;94646.13;6202939;23;20200;-86
2024/04/04 17:39:14;;;;;;;2.28;1.17;;;;;;;15.81;54.36;94642.63;6200466;23;20189;-87
2024/04/04 17:42:29;;;;;;;1.58;1.08;;;;;;;15.86;54.49;94666.91;6185123;23;20177;-88
2024/04/04 17:45:18;;;;;;;1.58;1.00;;;;;;;15.84;54.76;94668.13;6184338;23;20257;-88
2024/04/04 17:47:46;;;;;;;1.23;0.98;;;;;;;15.88;54.79;94675.25;6059731;23;20203;-87
2024/04/04 17:50:26;;;;;;;2.08;1.10;;;;;;;15.84;54.81;94691.50;6172472;23;20174;-88
2024/04/04 17:53:07;;;;;;;1.95;1.00;;;;;;;15.81;54.90;94699.75;6178289;23;20228;-90
2024/04/04 17:55:33;;;;;;;1.83;1.00;;;;;;;15.82;54.97;94694.31;6180398;23;20154;-88
2024/04/04 17:58:11;;;;;;;1.30;1.13;;;;;;;15.80;54.89;94706.75;6179547;23;20285;-88
2024/04/04 18:00:39;;;;;;;1.55;1.00;;;;;;;15.83;55.06;94708.88;6184767;23;20630;-89
2024/04/04 18:03:06;;;;;;;1.95;1.20;;;;;;;15.80;55.00;94711.16;6184320;23;20170;-87
2024/04/04 18:05:31;;;;;;;3.45;1.25;;;;;;;15.78;55.03;94713.97;6182487;23;20251;-89
2024/04/04 18:07:58;;;;;;;3.10;1.33;;;;;;;15.79;55.12;94723.34;6182337;23;20194;-89
2024/04/04 18:10:24;;;;;;;3.72;1.20;;;;;;;15.82;55.01;94717.69;6182849;23;20186;-90
2024/04/04 18:12:51;;;;;;;4.90;1.40;;;;;;;15.87;54.74;94737.78;6184404;23;20182;-91
2024/04/04 18:15:28;;;;;;;1.20;1.00;;;;;;;15.86;55.29;94743.97;6182951;23;20558;-88
2024/04/04 18:18:05;;;;;;;1.55;1.08;;;;;;;15.88;55.32;94752.34;6184099;23;20221;-90
2024/04/04 18:20:33;;;;;;;2.92;1.25;;;;;;;15.82;55.28;94751.44;6182165;23;20524;-91
2024/04/04 18:23:03;;;;;;;1.27;0.98;;;;;;;15.74;55.44;94764.78;6184719;23;20173;-89
2024/04/04 18:25:28;;;;;;;2.30;1.00;;;;;;;15.79;55.39;94769.25;6184781;23;20181;-88
2024/04/04 18:27:55;;;;;;;2.60;1.10;;;;;;;15.79;55.49;94777.84;6183992;23;20225;-88
2024/04/04 18:33:16;;;;;;;1.90;1.60;;;;;;;15.73;55.60;94794.34;6182889;23;20217;-90
2024/04/04 18:35:42;;;;;;;2.90;1.35;;;;;;;15.76;55.93;94795.69;6182622;23;20653;-89
2024/04/04 18:38:10;;;;;;;1.83;0.93;;;;;;;15.76;55.95;94803.47;6182194;23;20281;-88
2024/04/04 18:40:39;;;;;;;1.20;0.90;;;;;;;15.72;55.85;94820.53;6182830;23;20174;-88
2024/04/04 18:43:05;;;;;;;1.45;1.15;;;;;;;15.74;55.87;94824.47;6182290;23;20254;-90
2024/04/04 18:45:34;;;;;;;1.55;1.30;;;;;;;15.80;56.06;94820.16;6182876;23;20167;-89
2024/04/04 18:48:09;;;;;;;3.22;1.20;;;;;;;15.82;56.06;94824.09;6182920;23;20218;-89
2024/04/04 18:50:42;;;;;;;1.40;1.20;;;;;;;15.82;56.38;94826.72;6181793;23;20166;-88
2024/04/04 18:53:13;;;;;;;2.47;1.20;;;;;;;15.80;56.20;94833.13;6181188;23;20261;-90
2024/04/04 18:55:42;;;;;;;2.45;1.17;;;;;;;15.81;56.26;94835.50;6182381;23;20166;-90
2024/04/04 18:58:08;;;;;;;1.95;1.23;;;;;;;15.78;56.62;94864.50;6182976;23;20276;-90
2024/04/04 19:01:16;;;;;;;4.55;4.00;;;;;;;15.80;56.80;94864.28;6182974;23;20202;-90
2024/04/04 19:03:50;;;;;;;2.65;1.52;;;;;;;15.71;56.93;94878.63;6183141;23;20170;-89
2024/04/04 19:10:02;;;;;;;2.35;1.10;;;;;;;15.74;56.97;94907.53;6152238;23;20174;-89
2024/04/04 19:13:18;;;;;;;1.77;1.20;;;;;;;15.76;57.33;94915.88;6181936;23;20166;-91
2024/04/04 19:15:57;;;;;;;2.53;1.45;;;;;;;15.79;57.34;94923.19;6126151;23;20205;-90
2024/04/04 19:18:56;;;;;;;2.25;1.20;;;;;;;15.79;57.93;94953.56;6180654;23;20607;-89
2024/04/04 19:21:28;;;;;;;4.80;2.22;;;;;;;15.74;58.81;95019.13;6182870;23;20221;-90
2024/04/04 19:23:55;;;;;;;5.15;2.88;;;;;;;15.72;59.12;95043.72;6183768;23;20166;-89
2024/04/04 19:26:32;;;;;;;3.70;2.13;;;;;;;15.69;60.50;95083.09;6181978;23;20194;-90
2024/04/04 19:31:52;;;;;;;2.97;1.60;;;;;;;15.57;63.11;95192.03;6062956;23;20180;-88
2024/04/04 19:34:24;;;;;;;46.33;41.85;;;;;;;15.47;65.47;95272.13;6062749;23;20180;-89
2024/04/04 19:36:53;;;;;;;8.57;7.25;;;;;;;15.39;66.13;95288.78;6153278;23;20738;-90
2024/04/04 19:39:21;;;;;;;6.07;4.43;;;;;;;15.39;66.88;95316.53;6152840;23;20627;-89
2024/04/04 19:41:53;;;;;;;3.72;2.33;;;;;;;15.40;67.52;95347.44;6151958;23;20282;-90
2024/04/04 19:44:18;;;;;;;2.95;1.70;;;;;;;15.44;67.81;95358.97;6153477;23;20163;-89
2024/04/04 19:46:48;;;;;;;1.85;1.40;;;;;;;15.33;69.87;95421.94;6153284;23;20226;-89
2024/04/04 19:49:14;;;;;;;3.00;1.55;;;;;;;15.25;70.84;95436.94;6152453;23;20179;-91
2024/04/04 19:51:41;;;;;;;2.72;1.88;;;;;;;15.10;72.66;95430.25;6152916;23;20171;-89
2024/04/04 19:54:07;;;;;;;3.22;1.80;;;;;;;14.94;74.18;95474.81;6152408;23;20262;-89
2024/04/04 19:56:33;;;;;;;1.77;1.50;;;;;;;14.89;74.24;95479.00;6152789;23;20206;-89
2024/04/04 19:59:01;;;;;;;4.22;1.98;;;;;;;14.83;75.19;95507.34;6152632;23;20808;-89
2024/04/04 20:01:30;;;;;;;1.80;1.50;;;;;;;14.74;76.05;95531.09;6152855;23;20178;-89
2024/04/04 20:03:56;;;;;;;4.20;1.95;;;;;;;14.63;77.33;95557.63;6152312;23;20260;-89
2024/04/04 20:06:22;;;;;;;2.80;1.38;;;;;;;14.58;77.12;95554.88;6152175;23;20286;-90
2024/04/04 20:08:48;;;;;;;3.20;1.75;;;;;;;14.60;77.63;95584.75;6153013;23;20166;-89
2024/04/04 20:11:17;;;;;;;2.17;1.52;;;;;;;14.50;79.46;95610.25;6154246;23;20171;-89
2024/04/04 20:13:46;;;;;;;3.92;1.67;;;;;;;14.45;80.36;95623.81;6153335;23;20777;-89
2024/04/04 20:19:55;;;;;;;2.22;1.40;;;;;;;14.57;77.79;95585.16;6094355;23;20182;-88
2024/04/04 20:22:23;;;;;;;2.38;1.52;;;;;;;14.61;77.72;95598.53;6150525;23;20175;-89
2024/04/04 20:25:19;;;;;;;3.75;1.60;;;;;;;14.67;76.90;95559.63;6151367;23;20562;-88
2024/04/04 20:27:52;;;;;;;4.82;1.60;;;;;;;14.72;76.86;95577.16;6136846;23;20199;-89
2024/04/04 20:30:24;;;;;;;1.80;1.45;;;;;;;14.72;77.31;95592.72;6152292;23;20158;-88
2024/04/04 20:32:58;;;;;;;2.70;1.48;;;;;;;14.73;79.47;95654.72;6152585;23;20163;-89
2024/04/04 20:35:45;;;;;;;3.22;1.73;;;;;;;14.74;79.43;95650.34;6152376;23;20155;-89
2024/04/04 20:38:11;;;;;;;1.45;1.33;;;;;;;14.72;80.48;95668.66;6156653;23;20187;-89
2024/04/04 20:40:43;;;;;;;3.83;1.92;;;;;;;14.74;80.24;95661.50;6156346;23;20682;-90
2024/04/04 20:43:11;;;;;;;2.85;1.85;;;;;;;14.70;81.68;95691.41;6151891;23;20254;-89
2024/04/04 20:45:41;;;;;;;5.60;4.85;;;;;;;14.66;80.94;95679.81;6151461;23;20666;-90
2024/04/04 20:48:16;;;;;;;7.95;7.13;;;;;;;14.69;81.10;95694.19;6150888;23;20346;-89
2024/04/04 20:50:47;;;;;;;7.00;4.35;;;;;;;14.69;82.10;95714.91;6151902;23;20213;-89
2024/04/04 20:53:44;;;;;;;4.40;3.05;;;;;;;14.70;83.57;95755.38;6154097;23;20215;-89
2024/04/04 20:56:12;;;;;;;3.97;2.75;;;;;;;14.70;84.21;95776.13;6152585;23;20257;-90
2024/04/04 20:58:38;;;;;;;4.10;1.85;;;;;;;14.70;84.31;95781.31;6150592;23;20195;-89
2024/04/04 21:01:12;;;;;;;3.78;2.53;;;;;;;14.69;84.25;95769.34;6152821;23;20579;-90
2024/04/04 21:06:45;;;;;;;3.22;1.80;;;;;;;14.62;85.58;95800.44;6149377;23;20594;-90
2024/04/04 21:09:11;;;;;;;2.75;1.50;;;;;;;14.64;86.01;95798.44;6154937;23;20260;-89
2024/04/04 21:11:47;;;;;;;;;;;;;;;;;;;;;
2024/04/04 21:14:15;;;;;;;6.22;4.22;;;;;;;14.66;85.86;95785.28;6151036;23;20507;-89
2024/04/04 21:16:44;;;;;;;27.77;24.75;;;;;;;14.65;85.12;95760.34;6150588;23;20654;-90
2024/04/04 21:19:15;;;;;;;6.05;4.63;;;;;;;14.64;84.16;95736.25;6152982;23;20170;-89
2024/04/04 21:22:03;;;;;;;2.15;1.85;;;;;;;14.66;83.74;95734.25;6151001;23;20175;-89
2024/04/04 21:24:51;;;;;;;2.03;1.50;;;;;;;14.67;83.41;95737.63;6151432;23;20179;-90
2024/04/04 21:27:23;;;;;;;3.65;1.80;;;;;;;14.67;84.32;95748.81;6150589;23;20202;-89
2024/04/04 21:29:52;;;;;;;2.97;2.00;;;;;;;14.68;84.18;95765.16;6152112;23;20163;-89
2024/04/04 21:32:30;;;;;;;1.73;1.58;;;;;;;14.64;83.54;95759.56;6150558;23;20251;-89
2024/04/04 21:34:55;;;;;;;4.50;2.38;;;;;;;14.57;85.05;95763.16;6151071;23;20600;-89
2024/04/04 21:37:24;;;;;;;4.68;2.20;;;;;;;14.51;86.71;95816.53;6149172;23;20198;-89
2024/04/04 21:39:50;;;;;;;3.50;2.08;;;;;;;14.45;90.51;95880.28;6149689;23;20222;-87
2024/04/04 21:42:21;;;;;;;3.88;2.08;;;;;;;14.43;93.82;95920.38;6150574;23;20175;-89
2024/04/04 21:44:46;;;;;;;3.08;2.15;;;;;;;14.42;91.14;95891.06;6150514;23;20242;-88
2024/04/04 21:47:18;;;;;;;4.07;2.33;;;;;;;14.47;92.60;95931.94;6149925;23;20896;-89
2024/04/04 21:49:43;;;;;;;42.55;37.97;;;;;;;14.39;95.88;95955.38;6150689;23;20239;-89
2024/04/04 21:52:14;;;;;;;17.23;14.18;;;;;;;14.28;97.11;95972.25;6149326;23;20724;-89
2024/04/04 21:54:48;;;;;;;3.70;2.30;;;;;;;14.31;92.44;95898.53;6149664;23;20170;-89
2024/04/04 21:57:17;;;;;;;2.40;1.50;;;;;;;14.38;89.71;95852.75;6149490;23;20225;-88
2024/04/04 21:59:43;;;;;;;1.75;1.63;;;;;;;14.39;90.15;95857.75;6150077;23;20258;-89
2024/04/04 22:02:11;;;;;;;2.60;1.58;;;;;;;14.39;89.55;95844.00;6150662;23;20662;-89
2024/04/04 22:04:44;;;;;;;1.95;1.42;;;;;;;14.46;90.51;95862.97;6151330;23;20222;-89
2024/04/04 22:07:11;;;;;;;3.50;1.88;;;;;;;14.47;92.03;95891.28;6150081;23;20203;-90
2024/04/04 22:09:43;;;;;;;3.80;1.60;;;;;;;14.47;93.72;95918.97;6149432;23;20186;-89
2024/04/04 22:12:09;;;;;;;4.15;1.85;;;;;;;14.46;94.02;95940.69;6151037;23;20179;-89
2024/04/04 22:14:37;;;;;;;3.80;1.88;;;;;;;14.50;95.03;95978.19;6149864;23;20666;-90
2024/04/04 22:17:04;;;;;;;3.47;1.77;;;;;;;14.48;93.57;95946.47;6149391;23;20199;-89
2024/04/04 22:19:29;;;;;;;5.40;2.20;;;;;;;14.42;93.29;95932.53;6149782;23;20172;-90
2024/04/04 22:22:03;;;;;;;25.98;23.33;;;;;;;14.31;96.80;95977.03;6149282;23;20693;-89
2024/04/04 22:24:29;;;;;;;7.15;5.88;;;;;;;14.21;94.53;95949.91;6149273;23;20166;-89
2024/04/04 22:27:02;;;;;;;2.45;1.83;;;;;;;14.06;94.16;95939.63;6148668;23;20269;-90
2024/04/04 22:29:29;;;;;;;4.18;1.52;;;;;;;14.05;94.32;95944.00;6150295;23;20163;-89
2024/04/04 22:31:56;;;;;;;2.42;1.50;;;;;;;14.01;93.51;95939.41;6150410;23;20175;-90
2024/04/04 22:34:21;;;;;;;1.80;1.30;;;;;;;14.01;94.62;95973.06;6149841;23;20178;-89
2024/04/04 22:36:49;;;;;;;2.30;1.40;;;;;;;14.00;94.07;95969.66;6149768;23;20230;-89
2024/04/04 22:39:15;;;;;;;4.10;1.52;;;;;;;14.05;94.42;95964.72;6149633;23;20179;-89